createdAt,value
2022-12-23T00:00:43.546Z,6.48
2022-12-23T00:03:10.837Z,6.43
2022-12-23T00:05:39.213Z,6.39
2022-12-23T00:08:07.178Z,6.43
2022-12-23T00:10:35.177Z,6.45
2022-12-23T00:13:21.509Z,6.46
2022-12-23T00:15:48.965Z,6.44
2022-12-23T00:18:16.144Z,6.47
2022-12-23T00:20:43.232Z,6.50
2022-12-23T00:23:10.385Z,6.52
2022-12-23T00:25:42.454Z,6.52
2022-12-23T00:28:12.138Z,6.53
2022-12-23T00:30:53.236Z,6.54
2022-12-23T00:33:23.015Z,6.55
2022-12-23T00:35:50.759Z,6.57
2022-12-23T00:38:41.931Z,6.55
2022-12-23T00:41:31.576Z,6.52
2022-12-23T00:43:58.958Z,6.53
2022-12-23T00:46:26.214Z,6.55
2022-12-23T00:49:12.260Z,6.56
2022-12-23T00:51:39.409Z,6.56
2022-12-23T00:54:07.213Z,6.58
2022-12-23T00:56:34.344Z,6.59
2022-12-23T00:59:01.728Z,6.60
2022-12-23T01:01:47.860Z,6.62
2022-12-23T01:04:33.977Z,6.62
2022-12-23T01:07:01.355Z,6.61
2022-12-23T01:09:28.620Z,6.60
2022-12-23T01:11:55.745Z,6.59
2022-12-23T01:14:22.960Z,6.60
2022-12-23T01:16:50.216Z,6.60
2022-12-23T01:19:17.396Z,6.53
2022-12-23T01:21:44.488Z,6.48
2022-12-23T01:24:11.631Z,6.46
2022-12-23T01:26:38.789Z,6.51
2022-12-23T01:29:05.962Z,6.54
2022-12-23T01:31:33.172Z,6.49
2022-12-23T01:34:00.303Z,6.45
2022-12-23T01:36:27.671Z,6.50
2022-12-23T01:38:56.462Z,6.55
2022-12-23T01:41:44.997Z,6.58
2022-12-23T01:44:49.019Z,6.61
2022-12-23T01:47:46.938Z,6.62
2022-12-23T01:50:21.146Z,6.61
2022-12-23T01:53:10.170Z,6.58
2022-12-23T01:55:50.643Z,6.58
2022-12-23T01:58:27.847Z,6.60
2022-12-23T02:01:14.799Z,6.62
2022-12-23T02:03:42.738Z,6.63
2022-12-23T02:06:52.796Z,6.62
2022-12-23T02:09:25.155Z,6.63
2022-12-23T02:11:58.105Z,6.64
2022-12-23T02:15:02.818Z,6.62
2022-12-23T02:17:57.107Z,6.59
2022-12-23T02:20:33.025Z,6.60
2022-12-23T02:23:18.601Z,6.61
2022-12-23T02:26:03.764Z,6.60
2022-12-23T02:28:39.728Z,6.59
2022-12-23T02:31:12.117Z,6.60
2022-12-23T02:33:51.088Z,6.62
2022-12-23T02:36:49.953Z,6.60
2022-12-23T02:39:37.601Z,6.59
2022-12-23T02:42:12.865Z,6.58
2022-12-23T02:44:44.158Z,6.59
2022-12-23T02:47:14.701Z,6.59
2022-12-23T02:49:45.572Z,6.58
2022-12-23T02:52:18.660Z,6.59
2022-12-23T02:54:50.265Z,6.58
2022-12-23T02:57:20.577Z,6.58
2022-12-23T02:59:50.991Z,6.58
2022-12-23T03:02:18.885Z,6.59
2022-12-23T03:04:46.186Z,6.58
2022-12-23T03:07:18.734Z,6.58
2022-12-23T03:09:59.727Z,6.57
2022-12-23T03:12:49.789Z,6.57
2022-12-23T03:15:35.580Z,6.55
2022-12-23T03:18:12.351Z,6.57
2022-12-23T03:20:47.036Z,6.56
2022-12-23T03:23:20.248Z,6.56
2022-12-23T03:26:02.101Z,6.58
2022-12-23T03:28:38.154Z,6.56
2022-12-23T03:31:09.874Z,6.56
2022-12-23T03:33:40.959Z,6.57
2022-12-23T03:36:20.475Z,6.58
2022-12-23T03:38:48.777Z,6.58
2022-12-23T03:41:27.509Z,6.61
2022-12-23T03:44:10.323Z,6.59
2022-12-23T03:46:44.243Z,6.60
2022-12-23T03:49:26.170Z,6.59
2022-12-23T03:51:58.734Z,6.60
2022-12-23T03:54:30.712Z,6.62
2022-12-23T03:57:02.927Z,6.63
2022-12-23T03:59:39.713Z,6.63
2022-12-23T04:02:15.928Z,6.64
2022-12-23T04:05:01.254Z,6.64
2022-12-23T04:07:42.798Z,6.64
2022-12-23T04:10:10.405Z,6.65
2022-12-23T04:12:38.082Z,6.65
2022-12-23T04:15:10.853Z,6.64
2022-12-23T04:17:40.141Z,6.65
2022-12-23T04:20:07.841Z,6.67
2022-12-23T04:22:36.201Z,6.67
2022-12-23T04:25:03.438Z,6.67
2022-12-23T04:27:30.567Z,6.68
2022-12-23T04:29:57.676Z,6.71
2022-12-23T04:32:24.848Z,6.71
2022-12-23T04:34:52.135Z,6.72
2022-12-23T04:37:19.242Z,6.72
2022-12-23T04:39:46.425Z,6.71
2022-12-23T04:42:13.562Z,6.74
2022-12-23T04:44:40.718Z,6.73
2022-12-23T04:47:07.914Z,6.74
2022-12-23T04:49:35.108Z,6.73
2022-12-23T04:52:02.209Z,6.71
2022-12-23T04:54:29.332Z,6.74
2022-12-23T04:56:56.486Z,6.74
2022-12-23T04:59:23.665Z,6.74
2022-12-23T05:01:51.070Z,6.76
2022-12-23T05:04:18.431Z,6.74
2022-12-23T05:06:45.578Z,6.76
2022-12-23T05:09:12.705Z,6.77
2022-12-23T05:11:42.305Z,6.77
2022-12-23T05:14:10.869Z,6.78
2022-12-23T05:16:38.736Z,6.77
2022-12-23T05:19:06.349Z,6.73
2022-12-23T05:21:33.502Z,6.73
2022-12-23T05:24:00.637Z,6.76
2022-12-23T05:26:27.738Z,6.76
2022-12-23T05:28:55.157Z,6.78
2022-12-23T05:31:22.328Z,6.76
2022-12-23T05:33:49.599Z,6.77
2022-12-23T05:36:16.748Z,6.76
2022-12-23T05:38:43.971Z,6.76
2022-12-23T05:41:11.087Z,6.75
2022-12-23T05:43:38.251Z,6.76
2022-12-23T05:46:05.528Z,6.76
2022-12-23T05:48:32.776Z,6.78
2022-12-23T05:51:00.033Z,6.73
2022-12-23T05:53:27.167Z,6.72
2022-12-23T05:55:54.318Z,6.71
2022-12-23T05:58:21.509Z,6.75
2022-12-23T06:00:48.617Z,6.76
2022-12-23T06:03:15.884Z,6.79
2022-12-23T06:05:43.996Z,6.81
2022-12-23T06:08:11.286Z,6.78
2022-12-23T06:10:38.517Z,6.75
2022-12-23T06:13:05.685Z,6.75
2022-12-23T06:15:32.814Z,6.75
2022-12-23T06:17:59.917Z,6.74
2022-12-23T06:20:27.049Z,6.73
2022-12-23T06:22:54.265Z,6.76
2022-12-23T06:25:21.530Z,6.77
2022-12-23T06:27:48.627Z,6.79
2022-12-23T06:30:15.864Z,6.82
2022-12-23T06:32:43.041Z,6.86
2022-12-23T06:35:10.264Z,6.88
2022-12-23T06:37:37.589Z,6.87
2022-12-23T06:40:05.347Z,6.89
2022-12-23T06:42:32.532Z,6.85
2022-12-23T06:44:59.658Z,6.85
2022-12-23T06:47:26.776Z,6.89
2022-12-23T06:49:54.815Z,6.89
2022-12-23T06:52:23.097Z,6.92
2022-12-23T06:54:50.304Z,6.93
2022-12-23T06:57:17.452Z,6.94
2022-12-23T06:59:44.613Z,6.93
2022-12-23T07:02:12.226Z,6.88
2022-12-23T07:04:39.593Z,6.90
2022-12-23T07:07:06.693Z,6.90
2022-12-23T07:09:33.833Z,6.91
2022-12-23T07:12:02.950Z,6.89
2022-12-23T07:14:30.105Z,6.87
2022-12-23T07:16:57.288Z,6.92
2022-12-23T07:19:24.476Z,6.85
2022-12-23T07:21:51.623Z,6.84
2022-12-23T07:24:18.732Z,6.83
2022-12-23T07:26:45.842Z,6.85
2022-12-23T07:29:12.949Z,6.90
2022-12-23T07:31:41.225Z,6.86
2022-12-23T07:34:09.324Z,6.86
2022-12-23T07:36:36.467Z,6.88
2022-12-23T07:39:03.975Z,6.85
2022-12-23T07:41:31.201Z,6.84
2022-12-23T07:43:58.401Z,6.84
2022-12-23T07:46:25.659Z,6.84
2022-12-23T07:48:52.850Z,6.80
2022-12-23T07:51:19.963Z,6.81
2022-12-23T07:53:50.301Z,6.81
2022-12-23T07:56:18.445Z,6.83
2022-12-23T07:58:53.015Z,6.87
2022-12-23T08:01:20.680Z,6.86
2022-12-23T08:03:48.019Z,6.79
2022-12-23T08:06:16.070Z,6.76
2022-12-23T08:08:45.161Z,6.77
2022-12-23T08:11:14.177Z,6.74
2022-12-23T08:13:44.359Z,6.78
2022-12-23T08:16:12.416Z,6.73
2022-12-23T08:18:41.195Z,6.67
2022-12-23T08:21:14.803Z,6.67
2022-12-23T08:23:43.431Z,6.71
2022-12-23T08:26:12.885Z,6.71
2022-12-23T08:28:41.551Z,6.71
2022-12-23T08:31:20.787Z,6.72
2022-12-23T08:33:49.494Z,6.69
2022-12-23T08:36:23.349Z,6.72
2022-12-23T08:38:53.244Z,6.69
2022-12-23T08:41:24.608Z,6.67
2022-12-23T08:43:52.004Z,6.66
2022-12-23T08:46:19.572Z,6.69
2022-12-23T08:48:49.427Z,6.69
2022-12-23T08:51:18.803Z,6.73
2022-12-23T08:53:47.054Z,6.69
2022-12-23T08:56:17.992Z,6.65
2022-12-23T08:58:46.741Z,6.64
2022-12-23T09:01:15.770Z,6.66
2022-12-23T09:03:43.730Z,6.75
2022-12-23T09:06:16.501Z,6.79
2022-12-23T09:08:43.803Z,6.77
2022-12-23T09:11:16.729Z,6.78
2022-12-23T09:13:44.242Z,6.71
2022-12-23T09:16:11.598Z,6.71
2022-12-23T09:18:38.757Z,6.68
2022-12-23T09:21:10.935Z,6.68
2022-12-23T09:23:38.019Z,6.68
2022-12-23T09:26:06.156Z,6.72
2022-12-23T09:28:33.288Z,6.71
2022-12-23T09:31:08.644Z,6.68
2022-12-23T09:33:36.589Z,6.77
2022-12-23T09:36:04.670Z,6.74
2022-12-23T09:38:32.241Z,6.72
2022-12-23T09:41:27.604Z,6.79
2022-12-23T09:44:19.115Z,6.70
2022-12-23T09:46:55.710Z,6.70
2022-12-23T09:49:23.745Z,6.67
2022-12-23T09:51:54.083Z,6.66
2022-12-23T09:54:23.808Z,6.64
2022-12-23T09:57:12.634Z,6.67
2022-12-23T10:00:01.240Z,6.63
2022-12-23T10:02:38.982Z,6.65
2022-12-23T10:05:27.385Z,6.66
2022-12-23T10:08:04.459Z,6.69
2022-12-23T10:10:35.644Z,6.68
2022-12-23T10:13:06.014Z,6.66
2022-12-23T10:15:42.624Z,6.66
2022-12-23T10:18:20.699Z,6.67
2022-12-23T10:20:53.123Z,6.68
2022-12-23T10:23:28.815Z,6.66
2022-12-23T10:25:55.876Z,6.65
2022-12-23T10:28:23.023Z,6.66
2022-12-23T10:31:30.900Z,6.68
2022-12-23T10:34:02.377Z,6.73
2022-12-23T10:36:55.784Z,6.74
2022-12-23T10:39:36.841Z,6.74
2022-12-23T10:42:10.765Z,6.77
2022-12-23T10:44:59.368Z,6.81
2022-12-23T10:47:38.608Z,6.92
2022-12-23T10:50:36.873Z,6.97
2022-12-23T10:53:08.021Z,7.02
2022-12-23T10:55:38.330Z,7.01
2022-12-23T10:58:18.150Z,6.99
2022-12-23T11:00:52.750Z,6.94
2022-12-23T11:03:41.630Z,6.94
2022-12-23T11:06:09.914Z,7.01
2022-12-23T11:08:38.341Z,7.02
2022-12-23T11:11:07.195Z,7.01
2022-12-23T11:13:42.685Z,7.02
2022-12-23T11:16:15.679Z,7.01
2022-12-23T11:18:57.749Z,7.03
2022-12-23T11:21:25.846Z,7.02
2022-12-23T11:24:19.732Z,7.05
2022-12-23T11:26:49.757Z,7.07
2022-12-23T11:29:25.599Z,7.03
2022-12-23T11:31:52.981Z,7.05
2022-12-23T11:34:22.856Z,7.01
2022-12-23T11:36:56.586Z,6.97
2022-12-23T11:39:33.880Z,6.98
2022-12-23T11:42:18.516Z,6.98
2022-12-23T11:44:50.749Z,6.96
2022-12-23T11:47:23.837Z,7.03
2022-12-23T11:49:55.717Z,7.02
2022-12-23T11:52:30.746Z,7.04
2022-12-23T11:55:00.551Z,7.08
2022-12-23T11:57:41.058Z,7.09
2022-12-23T12:00:20.753Z,7.14
2022-12-23T12:02:50.867Z,7.10
2022-12-23T12:05:22.524Z,7.08
2022-12-23T12:07:50.512Z,7.04
2022-12-23T12:10:22.753Z,7.01
2022-12-23T12:12:54.810Z,7.06
2022-12-23T12:15:31.256Z,7.07
2022-12-23T12:17:59.444Z,7.07
2022-12-23T12:20:30.218Z,7.00
2022-12-23T12:23:13.191Z,7.09
2022-12-23T12:25:42.331Z,7.05
2022-12-23T12:28:14.067Z,7.02
2022-12-23T12:30:54.055Z,7.01
2022-12-23T12:33:48.483Z,7.06
2022-12-23T12:36:21.633Z,7.08
2022-12-23T12:38:49.241Z,7.03
2022-12-23T12:41:21.205Z,7.13
2022-12-23T12:43:52.853Z,7.23
2022-12-23T12:46:34.962Z,7.23
2022-12-23T12:49:26.713Z,7.30
2022-12-23T12:52:13.455Z,7.29
2022-12-23T12:54:46.573Z,7.31
2022-12-23T12:57:18.899Z,7.44
2022-12-23T12:59:48.150Z,7.56
2022-12-23T13:02:43.107Z,7.58
2022-12-23T13:05:19.637Z,7.56
2022-12-23T13:08:01.939Z,7.55
2022-12-23T13:10:51.927Z,7.54
2022-12-23T13:13:58.148Z,7.53
2022-12-23T13:16:28.205Z,7.55
2022-12-23T13:19:43.973Z,7.48
2022-12-23T13:22:13.117Z,7.49
2022-12-23T13:25:12.680Z,7.31
2022-12-23T13:27:45.499Z,7.26
2022-12-23T13:30:17.918Z,7.29
2022-12-23T13:32:49.542Z,7.28
2022-12-23T13:35:53.758Z,7.24
2022-12-23T13:38:31.449Z,7.21
2022-12-23T13:41:05.758Z,7.22
2022-12-23T13:43:46.295Z,7.36
2022-12-23T13:46:43.115Z,7.35
2022-12-23T13:49:34.417Z,7.33
2022-12-23T13:52:06.222Z,7.36
2022-12-23T13:55:11.429Z,7.42
2022-12-23T13:57:59.751Z,7.47
2022-12-23T14:00:32.323Z,7.41
2022-12-23T14:03:02.515Z,7.25
2022-12-23T14:05:38.716Z,7.13
2022-12-23T14:08:20.992Z,7.16
2022-12-23T14:10:58.933Z,7.19
2022-12-23T14:13:29.423Z,7.21
2022-12-23T14:16:34.860Z,7.28
2022-12-23T14:19:27.563Z,7.28
2022-12-23T14:22:13.497Z,7.27
2022-12-23T14:25:08.158Z,7.30
2022-12-23T14:28:02.567Z,7.33
2022-12-23T14:30:41.162Z,7.35
2022-12-23T14:33:29.125Z,7.40
2022-12-23T14:35:58.277Z,7.42
2022-12-23T14:38:30.547Z,7.36
2022-12-23T14:41:19.650Z,7.33
2022-12-23T14:43:46.747Z,7.32
2022-12-23T14:46:35.651Z,7.29
2022-12-23T14:49:37.574Z,7.21
2022-12-23T14:51:53.092Z,7.28
2022-12-23T14:54:37.895Z,7.29
2022-12-23T14:57:17.833Z,7.27
2022-12-23T14:59:49.260Z,7.31
2022-12-23T15:02:20.855Z,7.33
2022-12-23T15:04:53.200Z,7.33
2022-12-23T15:07:34.116Z,7.29
2022-12-23T15:10:04.699Z,7.25
2022-12-23T15:12:41.232Z,7.25
2022-12-23T15:15:24.020Z,7.27
2022-12-23T15:18:10.669Z,7.29
2022-12-23T15:20:37.808Z,7.29
2022-12-23T15:23:14.669Z,7.27
2022-12-23T15:25:46.464Z,7.25
2022-12-23T15:28:19.624Z,7.23
2022-12-23T15:30:49.312Z,7.24
2022-12-23T15:33:51.901Z,7.28
2022-12-23T15:36:07.567Z,7.26
2022-12-23T15:38:36.408Z,7.23
2022-12-23T15:41:06.637Z,7.26
2022-12-23T15:43:40.924Z,7.28
2022-12-23T15:46:26.943Z,7.29
2022-12-23T15:48:57.169Z,7.23
2022-12-23T15:51:58.291Z,7.19
2022-12-23T15:54:21.244Z,7.14
2022-12-23T15:56:50.871Z,7.14
2022-12-23T15:59:25.049Z,7.18
2022-12-23T16:01:52.478Z,7.22
2022-12-23T16:04:26.271Z,7.27
2022-12-23T16:06:55.014Z,7.30
2022-12-23T16:09:22.016Z,7.31
2022-12-23T16:11:51.854Z,7.32
2022-12-23T16:14:31.448Z,7.33
2022-12-23T16:17:02.279Z,7.30
2022-12-23T16:19:35.876Z,7.26
2022-12-23T16:22:24.100Z,7.21
2022-12-23T16:24:58.371Z,7.23
2022-12-23T16:27:33.852Z,7.22
2022-12-23T16:30:03.533Z,7.21
2022-12-23T16:32:30.859Z,7.19
2022-12-23T16:35:09.510Z,7.19
2022-12-23T16:37:36.583Z,7.21
2022-12-23T16:40:13.605Z,7.25
2022-12-23T16:42:40.675Z,7.28
2022-12-23T16:45:12.775Z,7.32
2022-12-23T16:47:41.841Z,7.34
2022-12-23T16:50:12.339Z,7.33
2022-12-23T16:52:39.445Z,7.31
2022-12-23T16:55:14.447Z,7.30
2022-12-23T16:57:41.823Z,7.32
2022-12-23T17:00:13.221Z,7.34
2022-12-23T17:02:40.375Z,7.33
2022-12-23T17:05:08.341Z,7.34
2022-12-23T17:07:38.736Z,7.35
2022-12-23T17:10:09.387Z,7.38
2022-12-23T17:12:36.715Z,7.39
2022-12-23T17:15:05.188Z,7.42
2022-12-23T17:17:32.284Z,7.41
2022-12-23T17:19:59.579Z,7.40
2022-12-23T17:22:34.790Z,7.32
2022-12-23T17:25:02.075Z,7.27
2022-12-23T17:27:29.277Z,7.29
2022-12-23T17:29:56.399Z,7.32
2022-12-23T17:32:23.620Z,7.36
2022-12-23T17:34:50.869Z,7.39
2022-12-23T17:37:20.045Z,7.39
2022-12-23T17:39:47.795Z,7.41
2022-12-23T17:42:24.929Z,7.41
2022-12-23T17:44:53.025Z,7.43
2022-12-23T17:47:22.183Z,7.43
2022-12-23T17:49:49.901Z,7.43
2022-12-23T17:52:22.953Z,7.42
2022-12-23T17:54:51.463Z,7.41
2022-12-23T17:57:24.948Z,7.43
2022-12-23T17:59:53.484Z,7.42
2022-12-23T18:02:32.998Z,7.43
2022-12-23T18:05:00.234Z,7.44
2022-12-23T18:07:27.794Z,7.44
2022-12-23T18:09:55.038Z,7.42
2022-12-23T18:12:35.629Z,7.39
2022-12-23T18:15:04.172Z,7.34
2022-12-23T18:17:31.469Z,7.34
2022-12-23T18:19:58.552Z,7.34
2022-12-23T18:22:26.322Z,7.36
2022-12-23T18:24:58.809Z,7.35
2022-12-23T18:27:26.560Z,7.34
2022-12-23T18:29:53.684Z,7.27
2022-12-23T18:32:29.640Z,7.25
2022-12-23T18:34:56.770Z,7.22
2022-12-23T18:37:24.095Z,7.22
2022-12-23T18:39:51.268Z,7.22
2022-12-23T18:42:20.105Z,7.21
2022-12-23T18:44:50.870Z,7.24
2022-12-23T18:47:18.022Z,7.28
2022-12-23T18:49:45.168Z,7.29
2022-12-23T18:52:15.082Z,7.30
2022-12-23T18:54:42.264Z,7.28
2022-12-23T18:57:10.533Z,7.29
2022-12-23T18:59:38.976Z,7.25
2022-12-23T19:02:06.219Z,7.26
2022-12-23T19:04:34.013Z,7.28
2022-12-23T19:07:01.151Z,7.28
2022-12-23T19:09:28.293Z,7.29
2022-12-23T19:11:55.524Z,7.29
2022-12-23T19:14:22.818Z,7.28
2022-12-23T19:16:52.262Z,7.26
2022-12-23T19:19:20.551Z,7.24
2022-12-23T19:21:47.688Z,7.26
2022-12-23T19:24:14.741Z,7.27
2022-12-23T19:26:41.970Z,7.28
2022-12-23T19:29:09.157Z,7.27
2022-12-23T19:31:36.337Z,7.26
2022-12-23T19:34:03.473Z,7.25
2022-12-23T19:36:30.814Z,7.24
2022-12-23T19:38:58.164Z,7.21
2022-12-23T19:41:25.468Z,7.14
2022-12-23T19:43:52.743Z,7.11
2022-12-23T19:46:19.922Z,7.12
2022-12-23T19:48:52.372Z,7.07
2022-12-23T19:51:19.826Z,7.09
2022-12-23T19:53:50.215Z,7.21
2022-12-23T19:56:21.068Z,7.26
2022-12-23T19:58:49.081Z,7.21
2022-12-23T20:01:24.990Z,7.11
2022-12-23T20:03:53.917Z,7.07
2022-12-23T20:06:24.302Z,7.06
2022-12-23T20:08:56.372Z,6.99
2022-12-23T20:11:30.284Z,7.01
2022-12-23T20:13:58.333Z,7.00
2022-12-23T20:16:26.161Z,7.00
2022-12-23T20:18:54.361Z,7.01
2022-12-23T20:21:21.636Z,6.95
2022-12-23T20:23:48.993Z,6.94
2022-12-23T20:26:17.742Z,6.95
2022-12-23T20:28:45.298Z,6.99
2022-12-23T20:31:15.182Z,6.99
2022-12-23T20:33:42.667Z,7.01
2022-12-23T20:36:12.686Z,6.99
2022-12-23T20:38:42.216Z,6.91
2022-12-23T20:41:11.496Z,6.90
2022-12-23T20:43:39.214Z,6.87
2022-12-23T20:46:08.300Z,6.76
2022-12-23T20:48:35.547Z,6.76
2022-12-23T20:51:13.162Z,6.77
2022-12-23T20:53:40.902Z,6.82
2022-12-23T20:56:14.781Z,6.79
2022-12-23T20:59:02.622Z,6.76
2022-12-23T21:01:35.329Z,6.75
2022-12-23T21:04:05.147Z,6.71
2022-12-23T21:06:33.728Z,6.72
2022-12-23T21:09:01.386Z,6.73
2022-12-23T21:11:29.662Z,6.67
2022-12-23T21:14:01.123Z,6.65
2022-12-23T21:16:32.046Z,6.69
2022-12-23T21:18:59.662Z,6.65
2022-12-23T21:21:28.111Z,6.68
2022-12-23T21:23:56.834Z,6.64
2022-12-23T21:26:26.518Z,6.59
2022-12-23T21:28:55.207Z,6.52
2022-12-23T21:31:23.934Z,6.49
2022-12-23T21:33:52.268Z,6.50
2022-12-23T21:36:22.561Z,6.47
2022-12-23T21:38:50.337Z,6.44
2022-12-23T21:41:23.375Z,6.43
2022-12-23T21:43:51.336Z,6.46
2022-12-23T21:46:20.690Z,6.52
2022-12-23T21:48:48.787Z,6.58
2022-12-23T21:51:22.593Z,6.60
2022-12-23T21:53:52.295Z,6.62
2022-12-23T21:56:21.980Z,6.59
2022-12-23T21:58:49.089Z,6.57
2022-12-23T22:01:18.919Z,6.52
2022-12-23T22:03:48.303Z,6.46
2022-12-23T22:06:17.902Z,6.35
2022-12-23T22:08:45.217Z,6.32
2022-12-23T22:11:15.140Z,6.33
2022-12-23T22:13:43.378Z,6.29
2022-12-23T22:16:12.364Z,6.28
2022-12-23T22:18:40.020Z,6.23
2022-12-23T22:21:09.537Z,6.14
2022-12-23T22:23:37.866Z,6.15
2022-12-23T22:26:06.284Z,6.18
2022-12-23T22:28:35.075Z,6.27
2022-12-23T22:31:24.212Z,6.33
2022-12-23T22:33:51.401Z,6.20
2022-12-23T22:36:18.549Z,6.17
2022-12-23T22:38:54.814Z,6.13
2022-12-23T22:41:22.771Z,6.14
2022-12-23T22:43:50.282Z,6.19
2022-12-23T22:46:18.262Z,6.20
2022-12-23T22:48:45.988Z,6.24
2022-12-23T22:51:15.407Z,6.19
2022-12-23T22:53:42.770Z,6.18
2022-12-23T22:56:12.186Z,6.15
2022-12-23T22:58:39.822Z,6.08
2022-12-23T23:01:07.992Z,6.09
2022-12-23T23:03:35.139Z,6.16
2022-12-23T23:06:04.663Z,6.06
2022-12-23T23:08:32.173Z,6.00
2022-12-23T23:11:02.308Z,6.00
2022-12-23T23:13:31.826Z,6.07
2022-12-23T23:15:59.498Z,6.03
2022-12-23T23:18:28.160Z,6.01
2022-12-23T23:20:55.358Z,5.95
2022-12-23T23:23:22.517Z,5.93
2022-12-23T23:25:49.728Z,5.97
2022-12-23T23:28:16.918Z,5.98
2022-12-23T23:30:44.154Z,5.94
2022-12-23T23:33:11.641Z,5.95
2022-12-23T23:35:39.043Z,5.97
2022-12-23T23:38:06.414Z,5.99
2022-12-23T23:40:33.557Z,5.97
2022-12-23T23:43:00.992Z,5.96
2022-12-23T23:45:28.147Z,5.92
2022-12-23T23:47:55.620Z,5.93
2022-12-23T23:50:22.998Z,5.89
2022-12-23T23:52:50.197Z,5.94
2022-12-23T23:55:17.439Z,6.01
2022-12-23T23:57:44.571Z,5.96
